Time;durP1;ratioP1;P1;durP2;ratioP2;P2;SDS_P1;SDS_P2;PMS_P1;PMS_P2;Temp;Humidity;BMP_temperature;BMP_pressure;BME280_temperature;BME280_humidity;BME280_pressure;Samples;Min_cycle;Max_cycle;Signal;HPM_P1;HPM_P2
2021/03/22 00:02:04;;;;;;;23.00;4.07;;;5.00;90.40;;;;;;5014577;28;20489;-82
2021/03/22 00:04:30;;;;;;;21.85;3.67;;;5.00;90.40;;;;;;5015517;28;20053;-83
2021/03/22 00:06:55;;;;;;;15.55;3.20;;;5.00;90.40;;;;;;5015722;28;20057;-82
2021/03/22 00:09:21;;;;;;;18.52;3.38;;;5.00;90.40;;;;;;5014431;28;20555;-82
2021/03/22 00:11:47;;;;;;;23.48;4.25;;;5.00;90.40;;;;;;5015684;28;20442;-82
2021/03/22 00:14:12;;;;;;;24.73;4.40;;;5.10;90.40;;;;;;5028289;28;20045;-82
2021/03/22 00:16:38;;;;;;;19.92;4.22;;;5.10;90.40;;;;;;5034558;28;20049;-82
2021/03/22 00:19:04;;;;;;;21.95;4.07;;;5.10;90.50;;;;;;5034889;28;20045;-82
2021/03/22 00:21:30;;;;;;;21.63;4.13;;;5.10;90.50;;;;;;5035130;28;20049;-82
2021/03/22 00:23:55;;;;;;;17.52;3.47;;;5.10;90.40;;;;;;5022381;28;20137;-82
2021/03/22 00:26:21;;;;;;;22.05;4.70;;;5.20;90.30;;;;;;5015087;28;20052;-82
2021/03/22 00:28:47;;;;;;;20.95;4.60;;;5.20;90.30;;;;;;5014889;28;20054;-83
2021/03/22 00:31:14;;;;;;;14.98;3.80;;;5.20;90.40;;;;;;5014348;28;20083;-81
2021/03/22 00:33:41;;;;;;;22.45;5.35;;;5.20;90.30;;;;;;5025150;28;20045;-82
2021/03/22 00:36:10;;;;;;;32.00;5.60;;;5.20;90.40;;;;;;5014788;28;20049;-83
2021/03/22 00:38:35;;;;;;;16.88;4.43;;;5.20;90.50;;;;;;5014072;28;20080;-83
2021/03/22 00:41:02;;;;;;;29.17;5.57;;;5.20;90.50;;;;;;5014924;28;20469;-83
2021/03/22 00:43:28;;;;;;;17.05;4.00;;;5.20;90.50;;;;;;5015158;28;20405;-82
2021/03/22 00:45:57;;;;;;;21.20;5.07;;;5.20;90.50;;;;;;5014311;28;20054;-83
2021/03/22 00:48:24;;;;;;;27.98;5.47;;;5.30;90.60;;;;;;5014761;28;20061;-82
2021/03/22 00:50:50;;;;;;;19.67;4.40;;;5.30;90.60;;;;;;5029392;28;20048;-83
2021/03/22 00:53:17;;;;;;;16.63;4.30;;;5.30;90.60;;;;;;5024761;28;20050;-82
2021/03/22 00:55:43;;;;;;;24.02;5.60;;;5.30;90.50;;;;;;5014847;28;20041;-83
2021/03/22 00:58:09;;;;;;;28.83;6.30;;;5.30;90.60;;;;;;5013410;28;20080;-83
2021/03/22 01:00:35;;;;;;;23.48;5.82;;;5.30;90.60;;;;;;5014555;28;20478;-84
2021/03/22 01:03:01;;;;;;;23.63;5.85;;;5.30;90.60;;;;;;5002721;28;20056;-83
2021/03/22 01:05:27;;;;;;;26.63;6.05;;;5.30;90.60;;;;;;5033255;28;20046;-83
2021/03/22 01:07:53;;;;;;;25.98;6.18;;;5.40;90.60;;;;;;5034191;28;20123;-82
2021/03/22 01:10:28;;;;;;;29.65;6.50;;;5.30;90.60;;;;;;5016429;28;20093;-83
2021/03/22 01:12:54;;;;;;;21.05;4.90;;;5.40;90.60;;;;;;5013825;28;20161;-83
2021/03/22 01:15:21;;;;;;;16.48;5.30;;;5.40;90.60;;;;;;5013998;28;20108;-83
2021/03/22 01:17:46;;;;;;;29.10;6.50;;;5.40;90.60;;;;;;5014113;28;20498;-83
2021/03/22 01:20:18;;;;;;;21.65;5.88;;;5.40;90.60;;;;;;5013247;28;20054;-83
2021/03/22 01:22:44;;;;;;;21.52;6.03;;;5.40;90.60;;;;;;5014455;28;20060;-83
2021/03/22 01:25:11;;;;;;;26.38;6.20;;;5.40;90.60;;;;;;4996653;28;20042;-83
2021/03/22 01:27:40;;;;;;;21.95;5.75;;;5.40;90.60;;;;;;5013239;28;20062;-83
2021/03/22 01:30:14;;;;;;;22.50;6.03;;;5.40;90.70;;;;;;5013624;28;20068;-83
2021/03/22 01:32:40;;;;;;;19.73;5.13;;;5.40;90.70;;;;;;5013866;28;20497;-83
2021/03/22 01:35:07;;;;;;;21.63;5.25;;;5.40;90.60;;;;;;5012784;28;20045;-82
2021/03/22 01:37:32;;;;;;;21.15;6.13;;;5.40;90.70;;;;;;5014082;28;20088;-83
2021/03/22 01:39:58;;;;;;;27.05;6.63;;;5.50;90.70;;;;;;5023491;28;20490;-84
2021/03/22 01:42:56;;;;;;;22.80;6.25;;;5.50;90.70;;;;;;5013723;28;20547;-83
2021/03/22 01:45:22;;;;;;;31.55;6.78;;;5.50;90.70;;;;;;5013605;28;20132;-83
2021/03/22 01:47:48;;;;;;;23.52;6.22;;;5.50;90.70;;;;;;5013342;28;20122;-83
2021/03/22 01:50:25;;;;;;;25.63;6.47;;;5.50;91.00;;;;;;5019878;28;20049;-83
2021/03/22 01:52:51;;;;;;;23.75;6.10;;;5.50;90.70;;;;;;5015639;28;20046;-84
2021/03/22 01:55:20;;;;;;;21.48;5.72;;;5.50;90.70;;;;;;5012743;28;20474;-84
2021/03/22 01:57:47;;;;;;;27.30;6.25;;;5.50;90.70;;;;;;5013559;28;20045;-83
2021/03/22 02:00:22;;;;;;;19.75;5.45;;;5.50;90.70;;;;;;5028010;28;20054;-84
2021/03/22 02:02:51;;;;;;;23.40;5.40;;;5.50;90.70;;;;;;5012720;28;20453;-83
2021/03/22 02:05:23;;;;;;;30.67;6.68;;;5.50;90.70;;;;;;5013156;28;20631;-83
2021/03/22 02:07:55;;;;;;;23.45;5.65;;;5.50;90.70;;;;;;5013097;28;20081;-83
2021/03/22 02:10:21;;;;;;;23.73;5.43;;;5.60;90.70;;;;;;5019613;28;20468;-84
2021/03/22 02:12:47;;;;;;;28.55;5.65;;;5.60;90.70;;;;;;5033022;28;20072;-83
2021/03/22 02:15:13;;;;;;;22.98;5.90;;;5.50;90.70;;;;;;5032061;28;20057;-83
2021/03/22 02:18:00;;;;;;;23.73;5.53;;;5.60;90.70;;;;;;5033087;28;20050;-83
2021/03/22 02:20:50;;;;;;;20.70;5.10;;;5.60;90.70;;;;;;5032653;28;20042;-83
2021/03/22 02:23:48;;;;;;;19.73;4.80;;;5.60;90.70;;;;;;5032326;28;20057;-83
2021/03/22 02:26:28;;;;;;;28.27;5.80;;;5.60;90.60;;;;;;5031907;28;20402;-84
2021/03/22 02:29:19;;;;;;;24.52;5.20;;;5.60;90.70;;;;;;5032709;28;20456;-83
2021/03/22 02:32:16;;;;;;;20.90;4.63;;;5.60;90.70;;;;;;5032820;28;20123;-82
2021/03/22 02:34:49;;;;;;;20.90;4.82;;;5.60;90.70;;;;;;5032914;28;20053;-83
2021/03/22 02:37:27;;;;;;;26.15;5.60;;;5.60;90.70;;;;;;5018387;28;20042;-83
2021/03/22 02:40:06;;;;;;;16.80;4.30;;;5.60;90.70;;;;;;5013275;28;20057;-83
2021/03/22 02:42:37;;;;;;;24.25;4.70;;;5.60;90.60;;;;;;5013194;28;20143;-83
2021/03/22 02:45:05;;;;;;;20.08;4.50;;;5.60;90.60;;;;;;5012070;28;20122;-83
2021/03/22 02:47:37;;;;;;;20.38;4.38;;;5.60;90.60;;;;;;5013096;28;20077;-83
2021/03/22 02:50:13;;;;;;;21.88;5.10;;;5.60;90.60;;;;;;5012750;28;20418;-83
2021/03/22 02:53:07;;;;;;;25.58;4.70;;;5.60;90.60;;;;;;5012208;28;20449;-83
2021/03/22 02:55:53;;;;;;;18.52;4.50;;;5.60;90.50;;;;;;5013156;28;20405;-83
2021/03/22 02:58:22;;;;;;;22.60;4.30;;;5.60;90.50;;;;;;5031275;28;20508;-84
2021/03/22 03:01:04;;;;;;;21.55;5.05;;;5.70;90.60;;;;;;5026386;28;20042;-83
2021/03/22 03:03:33;;;;;;;22.48;5.00;;;5.70;90.70;;;;;;5013936;28;20058;-83
2021/03/22 03:06:00;;;;;;;21.27;5.05;;;5.70;90.80;;;;;;5011954;28;20069;-83
2021/03/22 03:08:35;;;;;;;18.42;4.10;;;5.70;90.80;;;;;;5012713;28;20050;-83
2021/03/22 03:11:01;;;;;;;18.10;4.07;;;5.70;90.80;;;;;;5020022;28;20050;-83
2021/03/22 03:13:27;;;;;;;16.27;3.85;;;5.70;90.80;;;;;;5031797;28;20062;-83
2021/03/22 03:15:56;;;;;;;20.27;3.90;;;5.70;90.80;;;;;;5032158;28;20547;-83
2021/03/22 03:18:28;;;;;;;19.27;4.13;;;5.70;90.80;;;;;;5031247;28;20061;-83
2021/03/22 03:20:57;;;;;;;16.95;2.80;;;5.70;90.80;;;;;;5035619;28;20057;-83
2021/03/22 03:23:24;;;;;;;15.23;3.80;;;5.70;90.80;;;;;;5018308;28;20072;-84
2021/03/22 03:25:50;;;;;;;19.20;3.40;;;5.70;90.80;;;;;;5035818;28;20049;-82
2021/03/22 03:28:16;;;;;;;15.73;3.15;;;5.60;90.70;;;;;;5026966;28;20145;-84
2021/03/22 03:30:41;;;;;;;15.50;2.80;;;5.70;90.70;;;;;;5016555;28;20505;-83
2021/03/22 03:33:12;;;;;;;14.85;3.25;;;5.70;90.70;;;;;;5015262;28;20046;-84
2021/03/22 03:35:40;;;;;;;17.75;3.05;;;5.60;90.70;;;;;;5016097;28;20074;-84
2021/03/22 03:38:07;;;;;;;14.32;2.60;;;5.70;90.70;;;;;;5015899;28;20111;-83
2021/03/22 03:40:39;;;;;;;15.82;2.63;;;5.70;90.60;;;;;;5015499;28;20057;-82
2021/03/22 03:43:05;;;;;;;14.77;2.88;;;5.70;90.60;;;;;;5032935;28;20049;-83
2021/03/22 03:45:35;;;;;;;13.25;2.75;;;5.70;90.70;;;;;;5035879;28;20048;-82
2021/03/22 03:48:02;;;;;;;15.18;2.70;;;5.60;90.60;;;;;;5032689;28;20057;-82
2021/03/22 03:50:29;;;;;;;12.50;2.33;;;5.60;90.60;;;;;;5016349;28;20421;-83
2021/03/22 03:52:56;;;;;;;13.25;2.53;;;5.60;90.60;;;;;;5016245;28;20108;-82
2021/03/22 03:55:25;;;;;;;14.13;2.10;;;5.60;90.50;;;;;;4997451;28;20046;-82
2021/03/22 03:57:51;;;;;;;12.25;2.53;;;5.60;90.60;;;;;;5015643;28;20053;-83
2021/03/22 04:00:37;;;;;;;11.90;2.33;;;5.60;90.60;;;;;;5015567;28;20092;-84
2021/03/22 04:03:19;;;;;;;14.73;2.40;;;5.70;90.60;;;;;;5015176;28;20078;-83
2021/03/22 04:05:45;;;;;;;13.68;2.80;;;5.60;90.60;;;;;;5015876;28;20139;-83
2021/03/22 04:08:13;;;;;;;14.80;1.83;;;5.70;90.60;;;;;;5014933;28;20049;-83
2021/03/22 04:10:39;;;;;;;15.63;2.63;;;5.60;90.60;;;;;;5020348;28;20069;-83
2021/03/22 04:13:04;;;;;;;12.93;2.10;;;5.60;90.60;;;;;;5035127;28;20048;-83
2021/03/22 04:15:30;;;;;;;13.55;2.17;;;5.60;90.60;;;;;;5034517;28;20049;-82
2021/03/22 04:17:56;;;;;;;12.35;2.15;;;5.60;90.60;;;;;;5034904;28;20059;-83
2021/03/22 04:20:21;;;;;;;9.85;2.30;;;5.60;90.50;;;;;;5034883;28;20091;-83
2021/03/22 04:22:47;;;;;;;11.88;2.00;;;5.60;90.50;;;;;;5034207;28;20053;-83
2021/03/22 04:25:15;;;;;;;10.32;2.38;;;5.60;90.50;;;;;;5025050;28;20046;-83
2021/03/22 04:27:41;;;;;;;12.60;2.45;;;5.60;90.60;;;;;;5034650;28;20056;-83
2021/03/22 04:30:08;;;;;;;12.63;1.98;;;5.60;90.60;;;;;;5033930;28;20069;-83
2021/03/22 04:32:34;;;;;;;12.23;1.95;;;5.60;90.60;;;;;;5034439;28;20064;-83
2021/03/22 04:35:00;;;;;;;12.07;2.25;;;5.60;90.70;;;;;;5034603;28;20470;-83
2021/03/22 04:37:25;;;;;;;8.45;1.73;;;5.60;90.60;;;;;;5034172;28;20049;-83
2021/03/22 04:39:51;;;;;;;13.85;1.77;;;5.60;90.60;;;;;;5034580;28;20087;-83
2021/03/22 04:42:17;;;;;;;11.13;2.03;;;5.60;90.70;;;;;;5034416;28;20045;-82
2021/03/22 04:44:42;;;;;;;10.82;2.00;;;5.60;90.70;;;;;;5027663;28;20049;-83
2021/03/22 04:47:08;;;;;;;10.38;1.90;;;5.60;90.70;;;;;;5014796;28;20041;-83
2021/03/22 04:49:34;;;;;;;8.50;1.70;;;5.70;90.70;;;;;;5014879;28;20068;-83
2021/03/22 04:51:59;;;;;;;12.07;1.85;;;5.60;90.70;;;;;;5013731;28;20046;-83
2021/03/22 04:54:25;;;;;;;11.70;2.15;;;5.60;90.60;;;;;;5014764;28;20045;-83
2021/03/22 04:56:51;;;;;;;8.15;1.85;;;5.60;90.70;;;;;;5014496;28;20441;-83
2021/03/22 04:59:18;;;;;;;11.80;2.00;;;5.60;90.70;;;;;;5013606;28;20452;-83
2021/03/22 05:01:43;;;;;;;9.38;2.00;;;5.60;90.80;;;;;;5014544;28;20489;-82
2021/03/22 05:04:11;;;;;;;10.55;1.90;;;5.60;90.80;;;;;;5013415;28;20485;-83
2021/03/22 05:06:36;;;;;;;9.23;1.58;;;5.60;90.80;;;;;;5014537;28;20042;-84
2021/03/22 05:09:04;;;;;;;12.82;1.92;;;5.60;90.80;;;;;;5014211;28;20133;-83
2021/03/22 05:11:30;;;;;;;7.90;1.52;;;5.60;90.80;;;;;;5027720;28;20469;-82
2021/03/22 05:14:01;;;;;;;10.20;1.75;;;5.60;90.70;;;;;;5034070;28;20050;-83
2021/03/22 05:16:26;;;;;;;9.45;1.88;;;5.60;90.80;;;;;;5014729;28;20132;-83
2021/03/22 05:18:59;;;;;;;11.13;2.15;;;5.60;90.80;;;;;;5013377;28;20145;-83
2021/03/22 05:21:25;;;;;;;12.13;2.17;;;5.60;90.80;;;;;;5014532;28;20052;-83
2021/03/22 05:23:51;;;;;;;8.63;1.60;;;5.60;90.90;;;;;;5014137;28;20413;-83
2021/03/22 05:26:16;;;;;;;9.20;1.58;;;5.60;90.80;;;;;;5012762;28;20060;-83
2021/03/22 05:28:42;;;;;;;11.05;1.90;;;5.60;90.90;;;;;;5014043;28;20061;-82
2021/03/22 05:31:09;;;;;;;10.85;1.85;;;5.60;90.90;;;;;;5026225;28;20045;-83
2021/03/22 05:33:35;;;;;;;8.27;1.73;;;5.60;90.90;;;;;;5033093;28;20404;-82
2021/03/22 05:36:01;;;;;;;13.40;1.85;;;5.50;90.90;;;;;;5031878;28;20045;-83
2021/03/22 05:38:28;;;;;;;7.72;1.55;;;5.60;90.90;;;;;;5028289;28;20152;-82
2021/03/22 05:41:06;;;;;;;11.38;1.70;;;5.60;90.90;;;;;;5018676;28;20053;-82
2021/03/22 05:43:50;;;;;;;7.53;1.42;;;5.50;90.90;;;;;;5032914;28;20053;-82
2021/03/22 05:46:37;;;;;;;7.72;1.60;;;5.60;91.00;;;;;;5029563;28;20050;-82
2021/03/22 05:50:04;;;;;;;8.73;1.35;;;5.50;90.90;;;;;;5018456;28;20072;-82
2021/03/22 05:52:55;;;;;;;9.05;1.50;;;5.60;90.80;;;;;;5031603;28;20108;-82
2021/03/22 05:55:46;;;;;;;13.40;1.83;;;5.50;90.90;;;;;;5032450;28;20055;-83
2021/03/22 05:59:09;;;;;;;10.82;1.73;;;5.50;90.90;;;;;;5033151;28;20060;-83
2021/03/22 06:02:02;;;;;;;9.23;1.80;;;5.50;90.90;;;;;;5029366;28;20049;-83
2021/03/22 06:04:38;;;;;;;8.90;1.38;;;5.50;90.90;;;;;;5033396;28;20056;-83
2021/03/22 06:11:32;;;;;;;9.15;1.48;;;5.50;90.80;;;;;;4970948;28;20142;-84
2021/03/22 06:14:17;;;;;;;6.18;1.30;;;5.50;90.80;;;;;;5031780;28;20469;-83
2021/03/22 06:16:46;;;;;;;13.13;1.87;;;5.50;90.90;;;;;;5024690;28;20091;-83
2021/03/22 06:19:16;;;;;;;4.93;1.33;;;5.50;90.90;;;;;;5030370;28;20408;-83
2021/03/22 06:21:48;;;;;;;11.48;1.77;;;5.50;90.90;;;;;;5031322;28;20501;-83
2021/03/22 06:24:36;;;;;;;8.25;1.60;;;5.60;90.90;;;;;;5047740;28;20060;-83
2021/03/22 06:27:02;;;;;;;8.32;1.55;;;5.60;91.00;;;;;;5052563;28;20102;-83
2021/03/22 06:29:33;;;;;;;10.35;1.50;;;5.60;91.00;;;;;;5032515;28;20481;-83
2021/03/22 06:32:05;;;;;;;7.07;1.23;;;5.60;91.00;;;;;;5032681;28;20099;-84
2021/03/22 06:35:11;;;;;;;9.35;1.77;;;5.60;91.00;;;;;;5022620;28;20061;-81
2021/03/22 06:37:37;;;;;;;;;;;5.60;90.90;;;;;;5017617;28;20084;-81
2021/03/22 06:40:26;;;;;;;6.95;1.58;;;5.60;90.60;;;;;;5031845;28;19983;-83
2021/03/22 06:43:18;;;;;;;7.60;1.40;;;5.60;91.00;;;;;;5031904;28;20049;-83
2021/03/22 06:46:12;;;;;;;4.35;1.05;;;5.60;91.00;;;;;;5028313;28;20057;-83
2021/03/22 06:48:39;;;;;;;10.75;1.77;;;5.60;91.10;;;;;;5025653;28;20057;-82
2021/03/22 06:51:20;;;;;;;6.63;1.40;;;5.60;91.00;;;;;;5011657;28;20544;-86
2021/03/22 06:54:33;;;;;;;8.05;1.80;;;5.60;91.10;;;;;;5023981;28;20101;-86
2021/03/22 06:57:19;;;;;;;8.40;1.77;;;5.60;91.10;;;;;;5046808;28;20056;-86
2021/03/22 07:00:24;;;;;;;5.53;1.40;;;5.60;91.10;;;;;;5026093;28;20045;-86
2021/03/22 07:06:24;;;;;;;5.72;1.45;;;5.60;91.20;;;;;;4957356;28;20047;-87
2021/03/22 07:08:53;;;;;;;7.45;1.60;;;5.60;91.20;;;;;;4967624;28;20065;-85
2021/03/22 07:11:24;;;;;;;12.82;2.22;;;5.70;91.20;;;;;;4955156;28;20595;-85
2021/03/22 07:14:04;;;;;;;11.82;2.10;;;5.70;91.30;;;;;;4961598;28;20050;-85
2021/03/22 07:17:23;;;;;;;6.47;1.83;;;5.70;91.30;;;;;;4960750;28;20055;-85
2021/03/22 07:20:15;;;;;;;7.90;1.60;;;5.70;91.30;;;;;;4950915;28;20043;-86
2021/03/22 07:23:35;;;;;;;10.73;2.03;;;5.70;91.40;;;;;;4952093;28;20407;-85
2021/03/22 07:26:11;;;;;;;7.30;1.60;;;5.70;91.40;;;;;;4856597;29;20045;-86
2021/03/22 07:28:45;;;;;;;8.18;1.63;;;5.70;91.40;;;;;;4952606;28;20552;-86
2021/03/22 07:39:51;;;;;;;8.90;1.70;;;5.80;91.40;;;;;;5037904;28;20058;-86
2021/03/22 07:42:48;;;;;;;7.68;1.52;;;5.90;91.40;;;;;;5045877;28;20057;-86
2021/03/22 07:45:44;;;;;;;10.15;1.95;;;5.80;91.40;;;;;;5051636;28;20413;-86
2021/03/22 07:48:46;;;;;;;11.82;2.10;;;5.90;91.40;;;;;;5044223;28;20116;-87
2021/03/22 07:51:34;;;;;;;8.43;1.73;;;5.90;91.40;;;;;;5038448;28;20132;-84
2021/03/22 07:58:11;;;;;;;11.48;2.15;;;6.00;91.50;;;;;;5012094;28;20050;-83
2021/03/22 08:00:40;;;;;;;11.07;2.28;;;6.00;91.50;;;;;;5030956;28;20053;-84
2021/03/22 08:06:31;;;;;;;12.77;1.98;;;6.10;91.50;;;;;;5040150;23;20572;-85
2021/03/22 08:09:32;;;;;;;10.15;2.08;;;6.10;91.50;;;;;;5032556;28;20408;-84
2021/03/22 08:12:56;;;;;;;11.45;2.25;;;6.10;91.50;;;;;;5031106;28;20393;-83
2021/03/22 08:15:29;;;;;;;10.27;1.85;;;6.10;91.50;;;;;;5048572;28;20107;-84
2021/03/22 08:18:42;;;;;;;8.13;1.70;;;6.20;91.50;;;;;;5044126;28;20049;-83
2021/03/22 08:29:31;;;;;;;6.57;1.55;;;6.30;91.60;;;;;;4928784;29;20077;-84
2021/03/22 08:32:24;;;;;;;7.22;1.67;;;6.40;91.50;;;;;;4935127;29;20044;-82
2021/03/22 08:35:27;;;;;;;5.78;1.40;;;6.40;91.50;;;;;;4937827;28;20088;-83
2021/03/22 08:38:09;;;;;;;7.18;1.70;;;6.50;91.40;;;;;;5024207;28;20114;-83
2021/03/22 08:41:20;;;;;;;8.85;1.65;;;6.50;91.40;;;;;;5034766;28;20399;-83
2021/03/22 08:44:12;;;;;;;12.00;1.60;;;6.60;91.40;;;;;;4992820;28;20045;-83
2021/03/22 08:46:51;;;;;;;7.95;1.58;;;6.60;91.30;;;;;;5045421;28;20053;-82
2021/03/22 08:49:53;;;;;;;8.07;1.60;;;6.70;91.30;;;;;;5042936;28;20519;-83
2021/03/22 08:55:57;;;;;;;5.60;1.20;;;6.80;91.00;;;;;;5027003;28;20040;-84
2021/03/22 08:59:09;;;;;;;6.38;1.20;;;6.80;90.90;;;;;;5037796;28;20055;-84
2021/03/22 09:01:42;;;;;;;7.68;1.20;;;6.90;90.90;;;;;;5035896;28;20049;-84
2021/03/22 09:04:36;;;;;;;9.45;1.45;;;6.90;90.80;;;;;;5031930;28;20120;-84
2021/03/22 09:07:12;;;;;;;5.93;1.20;;;6.90;90.60;;;;;;5037082;28;20049;-83
2021/03/22 09:09:46;;;;;;;9.23;1.60;;;6.90;90.40;;;;;;5028560;28;20049;-82
2021/03/22 09:15:48;;;;;;;7.85;1.27;;;7.00;90.30;;;;;;5037629;28;20120;-83
2021/03/22 09:22:11;;;;;;;8.35;1.30;;;7.00;90.30;;;;;;5037395;28;20107;-84
2021/03/22 09:24:37;;;;;;;8.48;1.45;;;7.00;90.30;;;;;;5039906;28;20041;-84
2021/03/22 09:27:21;;;;;;;8.70;1.23;;;7.00;90.20;;;;;;5049617;28;20151;-85
2021/03/22 09:29:49;;;;;;;;;;;7.00;90.00;;;;;;5025186;28;20033;-84
2021/03/22 09:32:49;;;;;;;9.52;1.40;;;6.90;89.80;;;;;;5042032;28;20332;-83
2021/03/22 09:35:15;;;;;;;6.18;1.15;;;6.90;90.00;;;;;;5027136;28;20042;-84
2021/03/22 09:37:57;;;;;;;8.88;1.30;;;6.90;89.90;;;;;;5037616;28;20065;-83
2021/03/22 09:40:23;;;;;;;5.45;1.00;;;7.00;90.00;;;;;;5037286;28;20069;-82
2021/03/22 09:43:12;;;;;;;8.80;1.30;;;7.00;90.10;;;;;;5040370;28;20129;-81
2021/03/22 09:45:54;;;;;;;7.82;1.35;;;7.00;90.10;;;;;;5021527;28;20099;-83
2021/03/22 09:48:46;;;;;;;8.60;1.33;;;7.00;90.00;;;;;;5042538;28;20054;-83
2021/03/22 09:51:17;;;;;;;6.45;0.90;;;7.00;90.10;;;;;;4993904;28;20041;-85
2021/03/22 09:54:42;;;;;;;6.07;1.13;;;7.10;90.00;;;;;;5040341;28;20508;-85
2021/03/22 09:57:44;;;;;;;7.00;1.50;;;7.10;89.60;;;;;;4968125;28;20109;-84
2021/03/22 10:00:44;;;;;;;;;;;;;;;;;;;;;
2021/03/22 10:07:41;;;;;;;10.18;1.38;;;7.20;89.70;;;;;;4925017;28;20484;-83
2021/03/22 10:10:52;;;;;;;9.75;1.35;;;7.20;89.50;;;;;;5043566;28;20485;-82
2021/03/22 10:14:02;;;;;;;12.90;1.30;;;7.20;88.80;;;;;;4963829;22;20049;-82
2021/03/22 10:17:19;;;;;;;10.32;1.30;;;7.30;89.00;;;;;;4988815;28;20073;-83
2021/03/22 10:19:49;;;;;;;7.18;1.10;;;7.30;88.70;;;;;;4996581;28;20116;-83
2021/03/22 10:22:27;;;;;;;8.77;1.38;;;7.30;88.60;;;;;;5002145;28;20046;-82
2021/03/22 10:25:02;;;;;;;8.23;1.08;;;7.40;88.20;;;;;;5007403;28;20049;-84
2021/03/22 10:27:53;;;;;;;7.82;1.15;;;7.40;88.10;;;;;;4994192;28;20084;-81
2021/03/22 10:30:23;;;;;;;5.07;1.15;;;7.40;88.00;;;;;;5001721;28;20494;-82
2021/03/22 10:33:14;;;;;;;7.53;1.52;;;7.40;87.80;;;;;;5005582;28;20103;-82
2021/03/22 10:35:47;;;;;;;7.55;1.45;;;7.50;88.00;;;;;;4996408;28;20057;-82
2021/03/22 10:38:26;;;;;;;8.05;1.27;;;7.50;87.80;;;;;;4988230;28;20613;-81
2021/03/22 10:40:54;;;;;;;7.97;1.17;;;7.50;87.80;;;;;;5000636;28;20137;-82
2021/03/22 10:43:39;;;;;;;10.23;1.40;;;7.50;87.80;;;;;;4993542;28;20082;-82
2021/03/22 10:46:15;;;;;;;11.90;1.42;;;7.60;87.80;;;;;;4989994;28;20104;-82
2021/03/22 10:48:41;;;;;;;;;;;7.60;87.20;;;;;;4998417;28;20076;-77
2021/03/22 10:51:18;;;;;;;10.43;1.35;;;7.60;86.90;;;;;;4992531;28;20441;-80
2021/03/22 10:53:56;;;;;;;10.73;1.02;;;7.60;86.90;;;;;;4988950;28;20050;-81
2021/03/22 10:56:28;;;;;;;6.90;1.17;;;7.60;86.70;;;;;;5000530;28;20104;-81
2021/03/22 10:58:56;;;;;;;6.05;1.00;;;7.60;86.70;;;;;;5005272;28;20489;-81
2021/03/22 11:01:22;;;;;;;7.30;1.25;;;7.70;86.60;;;;;;4991838;28;20050;-82
2021/03/22 11:03:49;;;;;;;6.50;1.00;;;7.70;86.50;;;;;;4991897;28;20061;-82
2021/03/22 11:06:31;;;;;;;9.15;1.30;;;7.70;86.50;;;;;;4999672;28;20480;-82
2021/03/22 11:09:03;;;;;;;9.38;1.30;;;7.80;86.40;;;;;;4986924;28;20062;-82
2021/03/22 11:11:31;;;;;;;9.20;1.15;;;7.80;85.80;;;;;;4993870;28;20097;-82
2021/03/22 11:14:01;;;;;;;8.40;1.25;;;7.80;86.10;;;;;;5003734;28;20038;-82
2021/03/22 11:16:34;;;;;;;7.72;1.33;;;7.90;85.80;;;;;;4988318;28;20113;-82
2021/03/22 11:19:09;;;;;;;9.95;1.10;;;7.90;85.70;;;;;;4986921;28;20074;-82
2021/03/22 11:21:39;;;;;;;6.45;1.20;;;7.90;85.40;;;;;;4990630;28;20042;-83
2021/03/22 11:24:05;;;;;;;7.65;1.20;;;8.00;85.80;;;;;;4999413;28;20898;-85
2021/03/22 11:26:31;;;;;;;5.05;1.15;;;8.00;85.20;;;;;;4995046;28;20383;-83
2021/03/22 11:29:15;;;;;;;8.02;1.33;;;8.00;85.30;;;;;;4990812;28;20077;-82
2021/03/22 11:31:44;;;;;;;9.35;1.55;;;8.10;84.50;;;;;;4994683;28;20489;-85
2021/03/22 11:34:29;;;;;;;7.75;1.27;;;8.10;84.60;;;;;;5000799;28;20108;-84
2021/03/22 11:46:39;;;;;;;8.57;1.40;;;8.20;83.90;;;;;;5038949;23;20057;-84
2021/03/22 11:50:00;;;;;;;9.50;1.48;;;8.20;83.50;;;;;;5034705;28;20050;-83
2021/03/22 11:52:44;;;;;;;7.05;1.13;;;8.20;83.70;;;;;;5017551;28;20068;-86
2021/03/22 11:55:49;;;;;;;7.80;1.23;;;8.20;83.20;;;;;;5034515;28;20081;-91
2021/03/22 11:58:32;;;;;;;4.55;1.00;;;8.20;83.50;;;;;;5034814;28;20052;-88
2021/03/22 12:01:32;;;;;;;5.45;1.10;;;8.20;83.60;;;;;;5034226;28;20489;-89
2021/03/22 12:04:15;;;;;;;5.60;1.00;;;8.20;82.80;;;;;;5022985;28;20049;-88
2021/03/22 12:07:12;;;;;;;10.23;1.30;;;8.20;82.80;;;;;;5033589;28;20061;-87
2021/03/22 12:09:44;;;;;;;5.93;1.30;;;8.20;82.40;;;;;;5029484;28;20048;-88
2021/03/22 12:12:31;;;;;;;6.00;1.08;;;8.20;82.60;;;;;;5029776;28;20050;-88
2021/03/22 12:15:11;;;;;;;5.90;0.90;;;8.20;81.00;;;;;;5030919;28;20053;-84
2021/03/22 12:18:07;;;;;;;4.93;0.85;;;8.20;81.10;;;;;;5037670;28;20044;-85
2021/03/22 12:20:34;;;;;;;6.38;1.00;;;8.30;79.90;;;;;;5038817;28;20510;-85
2021/03/22 12:23:14;;;;;;;4.22;1.00;;;8.30;79.30;;;;;;5046317;28;20049;-85
2021/03/22 12:25:43;;;;;;;6.93;0.98;;;8.20;79.10;;;;;;5022731;28;20139;-87
2021/03/22 12:28:11;;;;;;;3.85;0.88;;;8.30;79.50;;;;;;5033181;28;20042;-89
2021/03/22 12:30:52;;;;;;;5.45;0.90;;;8.30;79.20;;;;;;5039076;28;20056;-90
2021/03/22 12:33:25;;;;;;;4.15;0.75;;;8.40;79.00;;;;;;5026880;28;20453;-87
2021/03/22 12:35:51;;;;;;;3.65;0.80;;;8.40;79.70;;;;;;5029436;28;20072;-87
2021/03/22 12:38:37;;;;;;;2.67;0.65;;;8.40;79.90;;;;;;5025443;28;20203;-89
2021/03/22 12:41:07;;;;;;;5.45;0.93;;;8.50;79.30;;;;;;5037867;28;20108;-89
2021/03/22 12:43:39;;;;;;;5.00;0.90;;;8.40;79.40;;;;;;5019023;28;20143;-87
2021/03/22 12:46:13;;;;;;;7.88;1.30;;;8.50;79.30;;;;;;5028982;28;20049;-88
2021/03/22 12:48:45;;;;;;;2.45;0.65;;;8.50;78.90;;;;;;5020795;28;20402;-88
2021/03/22 12:51:22;;;;;;;6.35;1.08;;;8.50;78.90;;;;;;5019872;28;20045;-88
2021/03/22 12:54:23;;;;;;;4.60;0.90;;;8.50;79.30;;;;;;5014211;28;20501;-88
2021/03/22 12:56:51;;;;;;;9.10;1.00;;;8.60;79.80;;;;;;4948204;28;20048;-85
2021/03/22 13:03:21;;;;;;;6.32;1.65;;;8.60;78.60;;;;;;4904873;29;20495;-85
2021/03/22 13:06:22;;;;;;;6.55;1.05;;;8.60;79.30;;;;;;5011092;28;20134;-85
2021/03/22 13:08:47;;;;;;;3.20;0.82;;;8.60;79.30;;;;;;5019627;28;20390;-83
2021/03/22 13:11:19;;;;;;;5.28;1.08;;;8.60;79.60;;;;;;5001995;28;20049;-82
2021/03/22 13:13:45;;;;;;;5.72;1.00;;;8.60;80.60;;;;;;5005968;28;20070;-85
2021/03/22 13:16:11;;;;;;;4.68;0.90;;;8.70;80.70;;;;;;5004397;28;20078;-85
2021/03/22 13:18:42;;;;;;;7.50;1.00;;;8.70;80.90;;;;;;5007158;28;20105;-84
2021/03/22 13:21:11;;;;;;;5.55;1.10;;;8.70;80.50;;;;;;4999265;28;20491;-84
2021/03/22 13:23:50;;;;;;;7.72;1.20;;;8.70;80.80;;;;;;5028510;28;20050;-84
2021/03/22 13:26:29;;;;;;;;;;;;;;;;;;;;;
2021/03/22 13:29:19;;;;;;;8.18;1.00;;;8.80;81.10;;;;;;5004803;28;20049;-85
2021/03/22 13:31:45;;;;;;;6.20;1.10;;;8.80;81.80;;;;;;5008591;28;20045;-85
2021/03/22 13:34:17;;;;;;;4.95;0.88;;;8.90;82.10;;;;;;4998609;28;20518;-84
2021/03/22 13:37:14;;;;;;;9.10;0.95;;;8.90;81.70;;;;;;5008016;28;20133;-84
2021/03/22 13:39:41;;;;;;;6.05;0.98;;;8.90;82.60;;;;;;4996839;28;20054;-85
2021/03/22 13:42:07;;;;;;;5.15;0.90;;;8.90;82.20;;;;;;5012842;28;20046;-86
2021/03/22 13:44:33;;;;;;;5.18;1.00;;;8.90;82.10;;;;;;5016364;28;20053;-85
2021/03/22 13:46:59;;;;;;;8.82;1.20;;;8.90;81.60;;;;;;5028261;28;20049;-87
2021/03/22 13:49:25;;;;;;;6.13;0.95;;;8.90;81.90;;;;;;5023651;28;20049;-86
2021/03/22 13:51:51;;;;;;;6.75;0.70;;;8.90;81.50;;;;;;5040790;28;20055;-86
2021/03/22 13:54:35;;;;;;;4.82;0.70;;;8.90;80.20;;;;;;5022392;28;20070;-87
2021/03/22 13:57:39;;;;;;;3.25;0.65;;;8.90;80.00;;;;;;4963592;28;20105;-87
2021/03/22 14:00:12;;;;;;;5.63;0.93;;;8.90;81.70;;;;;;5032412;28;20054;-87
2021/03/22 14:03:21;;;;;;;4.72;0.90;;;8.90;81.70;;;;;;5018713;28;20069;-86
2021/03/22 14:05:59;;;;;;;4.25;0.80;;;8.90;82.10;;;;;;5023587;28;20048;-86
2021/03/22 14:08:26;;;;;;;6.13;0.88;;;8.90;82.10;;;;;;5028169;28;20128;-86
2021/03/22 14:10:55;;;;;;;5.78;0.90;;;8.90;82.20;;;;;;5032071;28;20424;-85
2021/03/22 14:13:22;;;;;;;4.75;0.80;;;8.90;82.10;;;;;;5030793;28;20064;-85
2021/03/22 14:15:51;;;;;;;2.80;0.70;;;9.00;82.60;;;;;;5028369;28;20056;-89
2021/03/22 14:18:37;;;;;;;4.68;0.80;;;9.00;83.50;;;;;;5026982;28;20136;-88
2021/03/22 14:21:03;;;;;;;6.40;1.15;;;9.00;83.20;;;;;;4979636;28;20041;-88
2021/03/22 14:23:50;;;;;;;6.47;1.05;;;9.00;82.50;;;;;;5049126;28;20530;-88
2021/03/22 14:26:26;;;;;;;3.75;0.70;;;9.00;82.50;;;;;;5028204;28;20434;-88
2021/03/22 14:28:54;;;;;;;4.88;0.90;;;9.00;81.80;;;;;;5037710;23;20053;-87
2021/03/22 14:31:34;;;;;;;4.85;1.35;;;9.00;82.20;;;;;;5041854;23;20049;-88
2021/03/22 14:34:18;;;;;;;5.32;1.10;;;9.00;82.30;;;;;;5028080;28;20049;-88
2021/03/22 14:37:02;;;;;;;4.15;0.93;;;9.00;81.20;;;;;;5030174;28;20049;-88
2021/03/22 14:39:35;;;;;;;5.57;1.00;;;9.00;81.80;;;;;;5051700;28;20081;-87
2021/03/22 14:42:01;;;;;;;3.90;0.80;;;8.90;82.00;;;;;;5043469;28;20045;-86
2021/03/22 14:44:27;;;;;;;7.78;1.17;;;9.00;82.40;;;;;;5040574;28;20052;-87